createdAt,value
2023-04-02T00:01:56.244Z,17.20
2023-04-02T00:04:22.802Z,15.85
2023-04-02T00:06:49.141Z,17.42
2023-04-02T00:09:15.530Z,16.58
2023-04-02T00:11:41.904Z,16.40
2023-04-02T00:14:08.356Z,15.95
2023-04-02T00:16:34.915Z,15.57
2023-04-02T00:19:01.221Z,15.75
2023-04-02T00:21:27.582Z,15.32
2023-04-02T00:23:53.883Z,15.48
2023-04-02T00:26:20.266Z,15.05
2023-04-02T00:28:46.551Z,15.52
2023-04-02T00:31:12.879Z,15.02
2023-04-02T00:33:39.372Z,13.80
2023-04-02T00:36:05.754Z,13.80
2023-04-02T00:38:32.247Z,14.07
2023-04-02T00:40:58.844Z,14.27
2023-04-02T00:43:25.218Z,13.90
2023-04-02T00:45:51.628Z,14.07
2023-04-02T00:48:18.037Z,12.85
2023-04-02T00:50:44.396Z,12.93
2023-04-02T00:53:10.724Z,13.48
2023-04-02T00:55:37.421Z,13.30
2023-04-02T00:58:04.065Z,13.88
2023-04-02T01:00:30.655Z,12.85
2023-04-02T01:02:59.828Z,11.82
2023-04-02T01:05:27.356Z,12.48
2023-04-02T01:07:55.768Z,11.75
2023-04-02T01:10:22.138Z,12.93
2023-04-02T01:12:49.278Z,12.20
2023-04-02T01:15:16.130Z,11.85
2023-04-02T01:17:42.801Z,11.05
2023-04-02T01:20:09.654Z,11.32
2023-04-02T01:22:36.139Z,11.75
2023-04-02T01:25:02.947Z,10.85
2023-04-02T01:27:29.608Z,11.32
2023-04-02T01:29:56.331Z,10.93
2023-04-02T01:32:22.676Z,9.85
2023-04-02T01:34:49.678Z,10.77
2023-04-02T01:37:16.115Z,11.23
2023-04-02T01:39:42.542Z,11.23
2023-04-02T01:42:08.842Z,10.40
2023-04-02T01:44:35.167Z,10.50
2023-04-02T01:47:01.992Z,11.23
2023-04-02T01:49:28.413Z,10.82
2023-04-02T01:51:54.889Z,10.23
2023-04-02T01:54:21.323Z,9.10
2023-04-02T01:56:47.978Z,10.30
2023-04-02T01:59:14.318Z,10.77
2023-04-02T02:01:41.004Z,10.10
2023-04-02T02:04:07.476Z,9.98
2023-04-02T02:06:33.857Z,9.43
2023-04-02T02:09:00.308Z,9.60
2023-04-02T02:11:26.655Z,8.98
2023-04-02T02:13:53.336Z,9.30
2023-04-02T02:16:20.139Z,8.63
2023-04-02T02:18:46.932Z,8.85
2023-04-02T02:21:13.438Z,8.85
2023-04-02T02:23:39.819Z,8.98
2023-04-02T02:26:06.210Z,8.70
2023-04-02T02:28:32.554Z,8.60
2023-04-02T02:30:59.265Z,8.70
2023-04-02T02:33:25.703Z,9.60
2023-04-02T02:35:52.128Z,8.30
2023-04-02T02:38:18.939Z,8.07
2023-04-02T02:40:45.320Z,7.95
2023-04-02T02:43:11.681Z,8.27
2023-04-02T02:45:38.155Z,8.93
2023-04-02T02:48:04.671Z,7.97
2023-04-02T02:50:31.075Z,7.43
2023-04-02T02:52:57.908Z,7.47
2023-04-02T02:55:24.228Z,7.82
2023-04-02T02:57:50.573Z,6.95
2023-04-02T03:00:17.076Z,7.90
2023-04-02T03:02:44.213Z,7.80
2023-04-02T03:05:11.922Z,7.63
2023-04-02T03:07:38.652Z,7.10
2023-04-02T03:10:05.054Z,7.28
2023-04-02T03:12:31.482Z,7.40
2023-04-02T03:14:57.830Z,6.82
2023-04-02T03:17:24.294Z,6.95
2023-04-02T03:19:50.999Z,7.20
2023-04-02T03:22:17.369Z,6.93
2023-04-02T03:24:43.905Z,6.90
2023-04-02T03:27:10.326Z,6.80
2023-04-02T03:29:37.314Z,6.72
2023-04-02T03:32:03.687Z,6.55
2023-04-02T03:34:30.041Z,6.15
2023-04-02T03:36:56.381Z,6.15
2023-04-02T03:39:22.981Z,6.50
2023-04-02T03:41:49.832Z,6.22
2023-04-02T03:44:16.401Z,6.68
2023-04-02T03:46:43.170Z,6.55
2023-04-02T03:49:09.484Z,6.43
2023-04-02T03:51:36.218Z,6.47
2023-04-02T03:54:03.182Z,6.22
2023-04-02T03:56:29.630Z,6.63
2023-04-02T03:58:56.383Z,6.05
2023-04-02T04:01:22.965Z,6.03
2023-04-02T04:03:49.362Z,5.60
2023-04-02T04:06:15.978Z,6.00
2023-04-02T04:08:42.388Z,6.10
2023-04-02T04:11:08.944Z,6.13
2023-04-02T04:13:35.328Z,5.20
2023-04-02T04:16:01.794Z,5.45
2023-04-02T04:18:28.313Z,5.82
2023-04-02T04:20:54.708Z,5.80
2023-04-02T04:23:21.507Z,5.63
2023-04-02T04:25:47.989Z,5.88
2023-04-02T04:28:14.635Z,5.65
2023-04-02T04:30:41.229Z,4.97
2023-04-02T04:33:07.643Z,5.50
2023-04-02T04:35:34.382Z,5.40
2023-04-02T04:38:01.170Z,5.07
2023-04-02T04:40:27.521Z,5.13
2023-04-02T04:42:53.909Z,5.07
2023-04-02T04:45:20.426Z,5.38
2023-04-02T04:47:47.097Z,5.53
2023-04-02T04:50:13.449Z,5.72
2023-04-02T04:52:40.198Z,5.32
2023-04-02T04:55:06.618Z,4.70
2023-04-02T04:57:33.235Z,5.03
2023-04-02T05:00:00.004Z,4.45
2023-04-02T05:02:26.645Z,5.15
2023-04-02T05:04:53.444Z,4.85
2023-04-02T05:07:19.891Z,5.20
2023-04-02T05:09:46.222Z,5.20
2023-04-02T05:12:13.017Z,5.30
2023-04-02T05:14:39.351Z,4.53
2023-04-02T05:17:05.857Z,4.97
2023-04-02T05:19:32.222Z,4.32
2023-04-02T05:21:59.082Z,4.38
2023-04-02T05:24:25.516Z,4.90
2023-04-02T05:26:51.818Z,5.00
2023-04-02T05:29:18.430Z,4.57
2023-04-02T05:31:45.344Z,4.57
2023-04-02T05:34:12.040Z,4.57
2023-04-02T05:36:38.531Z,4.47
2023-04-02T05:39:05.211Z,4.45
2023-04-02T05:41:31.926Z,4.70
2023-04-02T05:43:58.226Z,4.70
2023-04-02T05:46:25.053Z,4.85
2023-04-02T05:48:51.418Z,4.63
2023-04-02T05:51:17.779Z,4.32
2023-04-02T05:53:44.411Z,4.30
2023-04-02T05:56:10.802Z,4.43
2023-04-02T05:58:37.549Z,4.00
2023-04-02T06:01:04.020Z,4.25
2023-04-02T06:03:30.681Z,4.45
2023-04-02T06:05:57.410Z,4.32
2023-04-02T06:08:23.815Z,4.22
2023-04-02T06:10:50.195Z,3.83
2023-04-02T06:13:16.674Z,4.45
2023-04-02T06:15:43.188Z,3.88
2023-04-02T06:18:10.042Z,4.10
2023-04-02T06:20:36.824Z,4.22
2023-04-02T06:23:03.914Z,4.20
2023-04-02T06:25:30.272Z,3.95
2023-04-02T06:27:57.246Z,3.58
2023-04-02T06:30:23.633Z,3.97
2023-04-02T06:32:50.060Z,3.72
2023-04-02T06:35:16.447Z,3.92
2023-04-02T06:37:43.534Z,3.97
2023-04-02T06:40:10.144Z,3.88
2023-04-02T06:42:36.581Z,3.70
2023-04-02T06:45:03.429Z,3.75
2023-04-02T06:47:29.813Z,4.10
2023-04-02T06:49:56.192Z,4.00
2023-04-02T06:52:23.103Z,4.03
2023-04-02T06:54:49.595Z,3.85
2023-04-02T06:57:16.360Z,3.85
2023-04-02T06:59:43.246Z,4.13
2023-04-02T07:02:09.712Z,3.88
2023-04-02T07:04:36.123Z,4.07
2023-04-02T07:07:03.013Z,4.05
2023-04-02T07:09:29.464Z,3.70
2023-04-02T07:11:56.134Z,3.58
2023-04-02T07:14:22.592Z,3.28
2023-04-02T07:16:49.037Z,3.80
2023-04-02T07:19:15.450Z,3.60
2023-04-02T07:21:41.914Z,3.40
2023-04-02T07:24:08.246Z,3.45
2023-04-02T07:26:34.868Z,3.88
2023-04-02T07:29:01.283Z,3.83
2023-04-02T07:31:27.733Z,3.80
2023-04-02T07:33:54.379Z,3.55
2023-04-02T07:36:20.719Z,3.35
2023-04-02T07:38:47.726Z,3.40
2023-04-02T07:41:14.569Z,3.40
2023-04-02T07:43:41.167Z,3.47
2023-04-02T07:46:07.478Z,3.40
2023-04-02T07:48:34.054Z,3.63
2023-04-02T07:51:00.629Z,3.95
2023-04-02T07:53:26.942Z,3.47
2023-04-02T07:55:53.628Z,3.58
2023-04-02T07:58:20.119Z,3.63
2023-04-02T08:00:47.081Z,3.10
2023-04-02T08:03:13.493Z,3.47
2023-04-02T08:05:39.971Z,3.15
2023-04-02T08:08:06.314Z,4.03
2023-04-02T08:10:33.188Z,3.13
2023-04-02T08:13:00.474Z,3.33
2023-04-02T08:15:26.887Z,3.72
2023-04-02T08:17:53.453Z,3.70
2023-04-02T08:20:20.406Z,3.53
2023-04-02T08:22:47.553Z,3.28
2023-04-02T08:25:14.418Z,3.70
2023-04-02T08:27:41.172Z,3.55
2023-04-02T08:30:07.680Z,3.92
2023-04-02T08:32:34.110Z,3.17
2023-04-02T08:35:00.507Z,3.90
2023-04-02T08:37:27.486Z,3.35
2023-04-02T08:39:53.903Z,3.72
2023-04-02T08:42:20.253Z,3.28
2023-04-02T08:44:47.090Z,3.83
2023-04-02T08:47:13.405Z,3.03
2023-04-02T08:49:40.056Z,3.30
2023-04-02T08:52:06.788Z,3.03
2023-04-02T08:54:34.353Z,3.35
2023-04-02T08:57:01.269Z,3.53
2023-04-02T08:59:28.203Z,3.10
2023-04-02T09:01:54.634Z,3.40
2023-04-02T09:04:21.426Z,3.15
2023-04-02T09:06:48.023Z,3.00
2023-04-02T09:09:14.364Z,3.25
2023-04-02T09:11:41.019Z,3.80
2023-04-02T09:14:07.453Z,3.25
2023-04-02T09:16:34.244Z,3.00
2023-04-02T09:19:01.050Z,3.70
2023-04-02T09:21:27.382Z,3.40
2023-04-02T09:23:53.917Z,3.40
2023-04-02T09:26:20.209Z,4.15
2023-04-02T09:28:47.154Z,4.00
2023-04-02T09:31:13.494Z,4.45
2023-04-02T09:33:40.137Z,4.10
2023-04-02T09:36:06.654Z,4.93
2023-04-02T09:38:33.252Z,5.25
2023-04-02T09:40:59.717Z,5.13
2023-04-02T09:43:26.383Z,5.15
2023-04-02T09:45:52.690Z,5.40
2023-04-02T09:48:19.061Z,5.15
2023-04-02T09:50:45.491Z,4.70
2023-04-02T09:53:12.147Z,4.70
2023-04-02T09:55:38.998Z,4.60
2023-04-02T09:58:05.557Z,4.28
2023-04-02T10:00:32.830Z,4.43
2023-04-02T10:03:00.050Z,4.22
2023-04-02T10:05:39.276Z,3.92
2023-04-02T10:08:07.776Z,3.90
2023-04-02T10:10:34.526Z,3.42
2023-04-02T10:13:01.086Z,3.90
2023-04-02T10:15:27.929Z,3.70
2023-04-02T10:17:54.297Z,3.80
2023-04-02T10:20:21.160Z,4.63
2023-04-02T10:22:47.956Z,4.95
2023-04-02T10:25:14.910Z,4.93
2023-04-02T10:27:41.610Z,4.65
2023-04-02T10:30:07.958Z,140.00
2023-04-02T10:32:34.304Z,140.40
2023-04-02T10:35:00.908Z,122.28
2023-04-02T10:37:27.517Z,114.57
2023-04-02T10:39:54.431Z,103.47
2023-04-02T10:42:20.812Z,97.18
2023-04-02T10:44:47.131Z,90.95
2023-04-02T10:47:13.500Z,82.25
2023-04-02T10:49:39.816Z,253.98
2023-04-02T10:52:06.221Z,234.15
2023-04-02T10:54:32.633Z,201.02
2023-04-02T10:56:59.351Z,187.60
2023-04-02T10:59:25.960Z,169.55
2023-04-02T11:01:52.966Z,156.93
2023-04-02T11:04:19.320Z,151.27
2023-04-02T11:06:46.738Z,143.52
2023-04-02T11:09:13.429Z,134.98
2023-04-02T11:11:39.876Z,124.68
2023-04-02T11:14:06.490Z,117.60
2023-04-02T11:16:33.047Z,112.70
2023-04-02T11:18:59.655Z,102.32
2023-04-02T11:21:26.006Z,104.13
2023-04-02T11:23:53.350Z,217.38
2023-04-02T11:26:20.274Z,224.38
2023-04-02T11:28:47.407Z,200.23
2023-04-02T11:31:13.896Z,180.65
2023-04-02T11:33:44.097Z,170.95
2023-04-02T11:36:11.964Z,158.90
2023-04-02T11:38:38.779Z,145.50
2023-04-02T11:41:05.278Z,138.93
2023-04-02T11:43:32.018Z,126.90
2023-04-02T11:45:58.672Z,118.55
2023-04-02T11:48:25.114Z,111.40
2023-04-02T11:50:51.433Z,229.77
2023-04-02T11:53:18.510Z,281.98
2023-04-02T11:55:45.099Z,257.15
2023-04-02T11:58:11.385Z,241.15
2023-04-02T12:00:37.922Z,222.68
2023-04-02T12:03:04.454Z,214.70
2023-04-02T12:05:30.863Z,200.52
2023-04-02T12:07:57.484Z,181.60
2023-04-02T12:10:23.866Z,171.35
2023-04-02T12:12:50.618Z,158.93
2023-04-02T12:15:16.980Z,156.20
2023-04-02T12:17:43.444Z,171.38
2023-04-02T12:20:10.231Z,230.88
2023-04-02T12:22:37.361Z,242.90
2023-04-02T12:25:03.741Z,226.85
2023-04-02T12:27:30.076Z,211.25
2023-04-02T12:29:56.488Z,198.32
2023-04-02T12:32:22.880Z,187.15
2023-04-02T12:34:49.482Z,165.65
2023-04-02T12:37:15.859Z,162.82
2023-04-02T12:39:42.270Z,154.15
2023-04-02T12:42:09.324Z,150.40
2023-04-02T12:44:36.100Z,137.43
2023-04-02T12:47:02.501Z,134.57
2023-04-02T12:49:28.894Z,128.88
2023-04-02T12:51:55.645Z,122.03
2023-04-02T12:54:22.336Z,253.50
2023-04-02T12:56:48.937Z,309.80
2023-04-02T12:59:15.810Z,385.55
2023-04-02T13:01:42.317Z,324.25
2023-04-02T13:04:08.790Z,294.85
2023-04-02T13:06:35.175Z,285.92
2023-04-02T13:09:01.661Z,275.88
2023-04-02T13:11:28.482Z,259.45
2023-04-02T13:13:55.400Z,240.73
2023-04-02T13:16:21.822Z,232.48
2023-04-02T13:18:48.864Z,218.10
2023-04-02T13:21:15.356Z,211.70
2023-04-02T13:23:41.870Z,239.73
2023-04-02T13:26:08.244Z,256.45
2023-04-02T13:28:34.571Z,269.65
2023-04-02T13:31:01.382Z,254.07
2023-04-02T13:33:27.926Z,240.35
2023-04-02T13:35:54.308Z,233.95
2023-04-02T13:38:21.022Z,231.88
2023-04-02T13:40:47.499Z,224.88
2023-04-02T13:43:14.549Z,223.80
2023-04-02T13:45:40.997Z,217.02
2023-04-02T13:48:07.404Z,209.57
2023-04-02T13:50:34.610Z,208.90
2023-04-02T13:53:01.159Z,204.27
2023-04-02T13:55:27.919Z,201.85
2023-04-02T13:57:54.309Z,198.30
2023-04-02T14:00:20.813Z,198.30
2023-04-02T14:02:47.745Z,193.20
2023-04-02T14:05:14.685Z,186.02
2023-04-02T14:07:41.078Z,180.57
2023-04-02T14:10:07.681Z,169.15
2023-04-02T14:12:34.266Z,176.63
2023-04-02T14:15:00.681Z,170.65
2023-04-02T14:17:27.713Z,169.02
2023-04-02T14:19:54.109Z,162.93
2023-04-02T14:22:20.616Z,156.23
2023-04-02T14:24:47.586Z,160.23
2023-04-02T14:27:14.022Z,157.40
2023-04-02T14:29:40.569Z,152.45
2023-04-02T14:32:06.895Z,153.10
2023-04-02T14:34:33.226Z,143.05
2023-04-02T14:36:59.778Z,140.88
2023-04-02T14:39:26.694Z,134.55
2023-04-02T14:41:53.052Z,133.02
2023-04-02T14:44:19.383Z,128.73
2023-04-02T14:46:45.882Z,131.73
2023-04-02T14:49:12.339Z,127.63
2023-04-02T14:51:39.039Z,130.88
2023-04-02T14:54:05.980Z,126.45
2023-04-02T14:56:32.773Z,124.40
2023-04-02T14:58:59.106Z,123.88
2023-04-02T15:01:25.613Z,117.97
2023-04-02T15:03:52.127Z,118.68
2023-04-02T15:06:19.002Z,116.25
2023-04-02T15:08:48.300Z,114.07
2023-04-02T15:11:19.296Z,111.85
2023-04-02T15:13:46.048Z,113.30
2023-04-02T15:16:12.530Z,113.65
2023-04-02T15:18:39.025Z,107.30
2023-04-02T15:21:05.464Z,108.70
2023-04-02T15:23:31.783Z,105.03
2023-04-02T15:25:58.412Z,103.65
2023-04-02T15:28:25.479Z,97.25
2023-04-02T15:30:52.431Z,99.32
2023-04-02T15:33:19.556Z,97.22
2023-04-02T15:35:45.980Z,94.28
2023-04-02T15:38:12.363Z,94.95
2023-04-02T15:40:38.902Z,90.10
2023-04-02T15:43:05.402Z,88.80
2023-04-02T15:45:32.771Z,87.07
2023-04-02T15:47:59.160Z,87.68
2023-04-02T15:50:25.577Z,81.97
2023-04-02T15:52:51.864Z,83.88
2023-04-02T15:55:18.594Z,79.20
2023-04-02T15:57:44.926Z,80.63
2023-04-02T16:00:11.270Z,79.22
2023-04-02T16:02:38.567Z,78.13
2023-04-02T16:05:05.026Z,77.78
2023-04-02T16:07:31.334Z,74.53
2023-04-02T16:09:58.002Z,75.13
2023-04-02T16:12:24.441Z,74.20
2023-04-02T16:14:51.274Z,71.40
2023-04-02T16:17:24.760Z,70.13
2023-04-02T16:19:51.888Z,67.82
2023-04-02T16:22:18.926Z,68.53
2023-04-02T16:24:45.453Z,65.32
2023-04-02T16:27:11.861Z,66.55
2023-04-02T16:29:51.101Z,64.80
2023-04-02T16:32:20.738Z,62.35
2023-04-02T16:34:47.610Z,61.75
2023-04-02T16:37:14.007Z,61.58
2023-04-02T16:39:41.256Z,59.20
2023-04-02T16:42:07.867Z,59.15
2023-04-02T16:44:34.195Z,57.83
2023-04-02T16:47:00.671Z,57.05
2023-04-02T16:49:27.492Z,55.83
2023-04-02T16:51:53.841Z,56.05
2023-04-02T16:54:20.696Z,51.53
2023-04-02T16:56:47.282Z,51.95
2023-04-02T16:59:13.622Z,53.58
2023-04-02T17:01:39.992Z,51.28
2023-04-02T17:04:08.863Z,50.20
2023-04-02T17:06:35.314Z,50.30
2023-04-02T17:09:01.776Z,47.70
2023-04-02T17:11:28.510Z,49.30
2023-04-02T17:13:55.241Z,46.70
2023-04-02T17:16:21.725Z,45.42
2023-04-02T17:18:49.419Z,46.33
2023-04-02T17:21:15.847Z,45.13
2023-04-02T17:23:53.199Z,44.53
2023-04-02T17:28:49.150Z,40.72
2023-04-02T17:31:15.735Z,41.70
2023-04-02T17:33:42.382Z,41.70
2023-04-02T17:36:08.719Z,40.78
2023-04-02T17:38:35.142Z,39.55
2023-04-02T17:41:02.042Z,37.33
2023-04-02T17:43:28.465Z,38.47
2023-04-02T17:45:55.568Z,38.78
2023-04-02T17:48:21.943Z,36.55
2023-04-02T17:50:48.365Z,35.67
2023-04-02T17:53:15.021Z,35.58
2023-04-02T17:55:41.804Z,35.72
2023-04-02T17:58:08.202Z,32.92
2023-04-02T18:00:35.266Z,32.53
2023-04-02T18:03:01.974Z,32.40
2023-04-02T18:05:28.365Z,32.72
2023-04-02T18:07:54.728Z,30.25
2023-04-02T18:10:21.123Z,32.42
2023-04-02T18:12:47.770Z,29.55
2023-04-02T18:15:14.511Z,28.85
2023-04-02T18:17:41.001Z,28.75
2023-04-02T18:20:07.620Z,28.35
2023-04-02T18:22:34.331Z,26.77
2023-04-02T18:25:01.077Z,26.52
2023-04-02T18:27:28.157Z,26.92
2023-04-02T18:29:54.963Z,26.77
2023-04-02T18:32:21.489Z,24.92
2023-04-02T18:34:48.124Z,26.38
2023-04-02T18:37:14.530Z,24.67
2023-04-02T18:39:41.366Z,25.00
2023-04-02T18:42:08.084Z,23.83
2023-04-02T18:44:34.526Z,24.38
2023-04-02T18:47:01.032Z,22.77
2023-04-02T18:49:27.607Z,23.08
2023-04-02T18:51:54.256Z,21.90
2023-04-02T18:54:20.869Z,21.58
2023-04-02T18:56:48.309Z,20.63
2023-04-02T18:59:14.908Z,21.42
2023-04-02T19:04:09.873Z,18.58
2023-04-02T19:06:36.931Z,18.50
2023-04-02T19:09:03.656Z,19.63
2023-04-02T19:11:30.842Z,18.63
2023-04-02T19:13:57.382Z,18.25
2023-04-02T19:16:23.796Z,18.60
2023-04-02T19:18:50.178Z,18.17
2023-04-02T19:21:16.639Z,17.77
2023-04-02T19:23:43.016Z,17.38
2023-04-02T19:26:09.384Z,17.75
2023-04-02T19:28:35.776Z,17.10
2023-04-02T19:31:02.666Z,17.10
2023-04-02T19:33:29.121Z,16.83
2023-04-02T19:35:55.540Z,16.05
2023-04-02T19:38:21.889Z,16.42
2023-04-02T19:40:48.245Z,16.45
2023-04-02T19:43:14.576Z,14.57
2023-04-02T19:45:41.131Z,14.43
2023-04-02T19:48:07.650Z,15.95
2023-04-02T19:50:34.198Z,14.02
2023-04-02T19:53:01.160Z,13.57
2023-04-02T19:55:28.042Z,14.18
2023-04-02T19:58:00.890Z,13.52
2023-04-02T20:00:35.841Z,13.05
2023-04-02T20:03:02.580Z,13.20
2023-04-02T20:05:29.012Z,12.63
2023-04-02T20:07:55.424Z,12.75
2023-04-02T20:10:23.125Z,12.65
2023-04-02T20:12:49.685Z,12.73
2023-04-02T20:15:16.293Z,11.85
2023-04-02T20:17:43.305Z,11.82
2023-04-02T20:20:09.684Z,12.27
2023-04-02T20:22:36.271Z,11.68
2023-04-02T20:25:02.749Z,11.57
2023-04-02T20:27:29.132Z,11.63
2023-04-02T20:29:55.507Z,10.75
2023-04-02T20:32:21.944Z,11.38
2023-04-02T20:34:48.527Z,10.73
2023-04-02T20:37:15.445Z,10.00
2023-04-02T20:39:41.796Z,10.23
2023-04-02T20:42:08.189Z,9.88
2023-04-02T20:44:34.566Z,10.15
2023-04-02T20:47:00.986Z,9.63
2023-04-02T20:49:27.281Z,9.50
2023-04-02T20:51:53.655Z,9.70
2023-04-02T20:54:20.025Z,9.20
2023-04-02T20:56:46.454Z,8.75
2023-04-02T20:59:13.293Z,9.10
2023-04-02T21:01:40.128Z,9.55
2023-04-02T21:04:06.560Z,8.68
2023-04-02T21:06:33.106Z,9.10
2023-04-02T21:08:59.520Z,9.07
2023-04-02T21:11:25.872Z,9.00
2023-04-02T21:13:52.524Z,8.10
2023-04-02T21:16:19.419Z,9.10
2023-04-02T21:18:45.780Z,8.02
2023-04-02T21:21:12.113Z,8.20
2023-04-02T21:23:38.497Z,7.22
2023-04-02T21:26:05.046Z,8.20
2023-04-02T21:28:31.976Z,8.27
2023-04-02T21:30:58.354Z,6.95
2023-04-02T21:33:24.807Z,6.75
2023-04-02T21:35:51.193Z,7.35
2023-04-02T21:38:18.210Z,6.80
2023-04-02T21:40:45.015Z,6.90
2023-04-02T21:43:11.423Z,7.03
2023-04-02T21:45:38.013Z,7.38
2023-04-02T21:48:04.568Z,6.93
2023-04-02T21:50:32.275Z,7.10
2023-04-02T21:52:59.254Z,6.65
2023-04-02T21:55:25.549Z,6.13
2023-04-02T21:57:51.950Z,6.40
2023-04-02T22:00:18.431Z,6.40
2023-04-02T22:02:45.384Z,6.30
2023-04-02T22:05:11.749Z,6.15
2023-04-02T22:07:38.447Z,6.15
2023-04-02T22:10:06.501Z,6.00
2023-04-02T22:12:33.131Z,5.85
2023-04-02T22:15:00.241Z,5.88
2023-04-02T22:17:29.889Z,5.53
2023-04-02T22:19:56.459Z,5.93
2023-04-02T22:22:22.850Z,5.93
2023-04-02T22:24:49.812Z,5.70
2023-04-02T22:27:16.164Z,5.72
2023-04-02T22:29:42.540Z,5.53
2023-04-02T22:32:08.892Z,5.50
2023-04-02T22:34:35.173Z,5.97
2023-04-02T22:37:01.532Z,5.80
2023-04-02T22:39:27.931Z,5.35
2023-04-02T22:41:54.381Z,5.47
2023-04-02T22:44:20.966Z,5.47
2023-04-02T22:46:47.722Z,5.53
2023-04-02T22:49:14.086Z,5.10
2023-04-02T22:51:40.435Z,5.18
2023-04-02T22:54:07.231Z,4.60
2023-04-02T22:56:33.575Z,4.47
2023-04-02T22:59:00.221Z,5.63
2023-04-02T23:01:26.761Z,4.18
2023-04-02T23:03:53.367Z,5.28
2023-04-02T23:06:19.657Z,4.57
2023-04-02T23:08:46.174Z,4.32
2023-04-02T23:11:12.494Z,4.72
2023-04-02T23:13:39.030Z,4.35
2023-04-02T23:16:05.382Z,4.15
2023-04-02T23:18:32.131Z,4.50
2023-04-02T23:20:58.622Z,4.70
2023-04-02T23:23:24.972Z,4.22
2023-04-02T23:25:51.310Z,4.50
2023-04-02T23:28:17.710Z,4.20
2023-04-02T23:30:44.048Z,4.55
2023-04-02T23:33:10.374Z,4.20
2023-04-02T23:35:37.164Z,4.32
2023-04-02T23:38:03.791Z,4.25
2023-04-02T23:40:30.368Z,4.35
2023-04-02T23:42:57.035Z,4.15
2023-04-02T23:45:23.835Z,4.43
2023-04-02T23:47:50.285Z,4.15
2023-04-02T23:50:16.730Z,3.60
2023-04-02T23:52:43.180Z,4.18
2023-04-02T23:55:09.571Z,4.15
2023-04-02T23:57:36.145Z,3.60
